sensor_id;sensor_type;location;lat;lon;timestamp;P1;durP1;ratioP1;P2;durP2;ratioP2
82777;SDS011;72510;45.128;20.734;2023-10-13T00:13:49;9.32;;;4.68;;
82777;SDS011;72510;45.128;20.734;2023-10-13T00:23:50;7.28;;;4.90;;
82777;SDS011;72510;45.128;20.734;2023-10-13T00:33:50;6.75;;;4.07;;
82777;SDS011;72510;45.128;20.734;2023-10-13T00:43:51;6.32;;;4.50;;
82777;SDS011;72510;45.128;20.734;2023-10-13T00:53:52;6.22;;;4.25;;
82777;SDS011;72510;45.128;20.734;2023-10-13T01:03:53;8.00;;;4.60;;
82777;SDS011;72510;45.128;20.734;2023-10-13T01:13:54;7.22;;;4.85;;
82777;SDS011;72510;45.128;20.734;2023-10-13T01:23:54;9.18;;;5.10;;
82777;SDS011;72510;45.128;20.734;2023-10-13T01:33:55;7.75;;;4.82;;
82777;SDS011;72510;45.128;20.734;2023-10-13T01:43:56;9.45;;;5.63;;
82777;SDS011;72510;45.128;20.734;2023-10-13T01:53:56;8.65;;;5.45;;
82777;SDS011;72510;45.128;20.734;2023-10-13T02:03:58;7.28;;;5.53;;
82777;SDS011;72510;45.128;20.734;2023-10-13T02:13:58;8.77;;;5.43;;
82777;SDS011;72510;45.128;20.734;2023-10-13T02:23:58;8.80;;;5.53;;
82777;SDS011;72510;45.128;20.734;2023-10-13T02:33:59;8.18;;;5.60;;
82777;SDS011;72510;45.128;20.734;2023-10-13T02:44:00;9.67;;;5.87;;
82777;SDS011;72510;45.128;20.734;2023-10-13T02:54:00;7.15;;;5.03;;
82777;SDS011;72510;45.128;20.734;2023-10-13T03:04:02;10.63;;;5.07;;
82777;SDS011;72510;45.128;20.734;2023-10-13T03:14:03;9.40;;;6.05;;
82777;SDS011;72510;45.128;20.734;2023-10-13T03:24:04;11.02;;;6.63;;
82777;SDS011;72510;45.128;20.734;2023-10-13T03:34:06;9.02;;;6.82;;
82777;SDS011;72510;45.128;20.734;2023-10-13T03:44:06;13.90;;;6.97;;
82777;SDS011;72510;45.128;20.734;2023-10-13T03:54:10;12.07;;;7.32;;
82777;SDS011;72510;45.128;20.734;2023-10-13T04:04:10;13.48;;;8.15;;
82777;SDS011;72510;45.128;20.734;2023-10-13T04:24:15;20.15;;;11.75;;
82777;SDS011;72510;45.128;20.734;2023-10-13T04:34:15;20.35;;;12.77;;
82777;SDS011;72510;45.128;20.734;2023-10-13T04:44:16;21.98;;;14.23;;
82777;SDS011;72510;45.128;20.734;2023-10-13T04:54:17;24.98;;;14.10;;
82777;SDS011;72510;45.128;20.734;2023-10-13T05:04:17;25.27;;;14.43;;
82777;SDS011;72510;45.128;20.734;2023-10-13T05:14:18;22.35;;;13.88;;
82777;SDS011;72510;45.128;20.734;2023-10-13T05:24:19;21.27;;;13.57;;
82777;SDS011;72510;45.128;20.734;2023-10-13T05:34:19;22.88;;;14.75;;
82777;SDS011;72510;45.128;20.734;2023-10-13T05:44:20;25.73;;;16.43;;
82777;SDS011;72510;45.128;20.734;2023-10-13T05:54:20;23.88;;;14.55;;
82777;SDS011;72510;45.128;20.734;2023-10-13T06:04:21;24.02;;;14.10;;
82777;SDS011;72510;45.128;20.734;2023-10-13T06:14:21;23.83;;;14.98;;
82777;SDS011;72510;45.128;20.734;2023-10-13T06:24:25;24.00;;;16.88;;
82777;SDS011;72510;45.128;20.734;2023-10-13T06:34:25;30.63;;;17.93;;
82777;SDS011;72510;45.128;20.734;2023-10-13T06:44:32;30.38;;;17.70;;
82777;SDS011;72510;45.128;20.734;2023-10-13T06:54:33;29.45;;;19.35;;
82777;SDS011;72510;45.128;20.734;2023-10-13T07:14:34;29.00;;;18.48;;
82777;SDS011;72510;45.128;20.734;2023-10-13T07:24:34;26.05;;;18.52;;
82777;SDS011;72510;45.128;20.734;2023-10-13T07:34:35;26.13;;;18.85;;
82777;SDS011;72510;45.128;20.734;2023-10-13T07:44:37;25.70;;;17.47;;
82777;SDS011;72510;45.128;20.734;2023-10-13T07:54:37;23.20;;;15.95;;
82777;SDS011;72510;45.128;20.734;2023-10-13T08:04:41;26.63;;;18.45;;
82777;SDS011;72510;45.128;20.734;2023-10-13T08:14:41;22.75;;;17.27;;
82777;SDS011;72510;45.128;20.734;2023-10-13T08:24:41;22.13;;;16.88;;
82777;SDS011;72510;45.128;20.734;2023-10-13T08:45:11;29.35;;;17.38;;
82777;SDS011;72510;45.128;20.734;2023-10-13T08:55:13;19.80;;;15.20;;
82777;SDS011;72510;45.128;20.734;2023-10-13T09:05:14;19.85;;;14.32;;
82777;SDS011;72510;45.128;20.734;2023-10-13T09:15:15;22.70;;;15.70;;
82777;SDS011;72510;45.128;20.734;2023-10-13T09:25:15;22.88;;;13.55;;
82777;SDS011;72510;45.128;20.734;2023-10-13T09:35:23;21.80;;;16.40;;
82777;SDS011;72510;45.128;20.734;2023-10-13T09:45:27;19.38;;;13.43;;
82777;SDS011;72510;45.128;20.734;2023-10-13T09:55:35;17.55;;;13.05;;
82777;SDS011;72510;45.128;20.734;2023-10-13T10:05:39;20.38;;;11.70;;
82777;SDS011;72510;45.128;20.734;2023-10-13T10:15:42;16.17;;;11.80;;
82777;SDS011;72510;45.128;20.734;2023-10-13T10:25:44;18.23;;;11.07;;
82777;SDS011;72510;45.128;20.734;2023-10-13T10:35:46;16.00;;;10.43;;
82777;SDS011;72510;45.128;20.734;2023-10-13T10:45:47;16.20;;;10.73;;
82777;SDS011;72510;45.128;20.734;2023-10-13T10:55:48;18.02;;;11.23;;
82777;SDS011;72510;45.128;20.734;2023-10-13T11:05:49;13.87;;;9.17;;
82777;SDS011;72510;45.128;20.734;2023-10-13T11:15:49;17.25;;;9.57;;
82777;SDS011;72510;45.128;20.734;2023-10-13T11:25:55;17.45;;;8.23;;
82777;SDS011;72510;45.128;20.734;2023-10-13T11:35:58;13.35;;;8.18;;
82777;SDS011;72510;45.128;20.734;2023-10-13T11:46:01;13.20;;;8.23;;
82777;SDS011;72510;45.128;20.734;2023-10-13T11:56:05;10.00;;;7.72;;
82777;SDS011;72510;45.128;20.734;2023-10-13T12:06:09;14.90;;;7.57;;
82777;SDS011;72510;45.128;20.734;2023-10-13T12:16:12;10.68;;;6.80;;
82777;SDS011;72510;45.128;20.734;2023-10-13T12:26:12;11.43;;;7.10;;
82777;SDS011;72510;45.128;20.734;2023-10-13T12:36:13;11.60;;;8.00;;
82777;SDS011;72510;45.128;20.734;2023-10-13T12:46:24;14.30;;;7.35;;
82777;SDS011;72510;45.128;20.734;2023-10-13T12:56:28;14.23;;;8.05;;
82777;SDS011;72510;45.128;20.734;2023-10-13T13:06:31;12.80;;;7.45;;
82777;SDS011;72510;45.128;20.734;2023-10-13T13:16:35;9.38;;;6.47;;
82777;SDS011;72510;45.128;20.734;2023-10-13T13:26:37;12.00;;;6.68;;
82777;SDS011;72510;45.128;20.734;2023-10-13T13:36:40;13.30;;;7.32;;
82777;SDS011;72510;45.128;20.734;2023-10-13T13:46:40;12.95;;;6.70;;
82777;SDS011;72510;45.128;20.734;2023-10-13T13:56:41;9.25;;;6.43;;
82777;SDS011;72510;45.128;20.734;2023-10-13T14:06:41;12.50;;;6.67;;
82777;SDS011;72510;45.128;20.734;2023-10-13T14:16:45;12.93;;;7.25;;
82777;SDS011;72510;45.128;20.734;2023-10-13T14:26:48;11.13;;;6.78;;
82777;SDS011;72510;45.128;20.734;2023-10-13T14:36:49;16.87;;;7.07;;
82777;SDS011;72510;45.128;20.734;2023-10-13T14:46:49;12.68;;;7.22;;
82777;SDS011;72510;45.128;20.734;2023-10-13T14:56:50;16.00;;;11.65;;
82777;SDS011;72510;45.128;20.734;2023-10-13T15:06:51;14.73;;;9.37;;
82777;SDS011;72510;45.128;20.734;2023-10-13T15:16:52;13.48;;;8.52;;
82777;SDS011;72510;45.128;20.734;2023-10-13T15:26:58;41.35;;;10.00;;
82777;SDS011;72510;45.128;20.734;2023-10-13T15:37:00;57.33;;;11.90;;
82777;SDS011;72510;45.128;20.734;2023-10-13T15:47:01;51.42;;;11.30;;
82777;SDS011;72510;45.128;20.734;2023-10-13T15:57:01;38.80;;;10.53;;
82777;SDS011;72510;45.128;20.734;2023-10-13T16:07:03;31.00;;;8.80;;
82777;SDS011;72510;45.128;20.734;2023-10-13T16:17:05;21.65;;;8.20;;
82777;SDS011;72510;45.128;20.734;2023-10-13T16:27:05;19.57;;;8.40;;
82777;SDS011;72510;45.128;20.734;2023-10-13T16:37:06;18.35;;;7.85;;
82777;SDS011;72510;45.128;20.734;2023-10-13T16:47:07;34.47;;;13.97;;
82777;SDS011;72510;45.128;20.734;2023-10-13T16:57:07;25.48;;;9.73;;
82777;SDS011;72510;45.128;20.734;2023-10-13T17:07:07;23.55;;;9.20;;
82777;SDS011;72510;45.128;20.734;2023-10-13T17:17:10;17.92;;;8.73;;
82777;SDS011;72510;45.128;20.734;2023-10-13T17:27:11;23.33;;;11.38;;
82777;SDS011;72510;45.128;20.734;2023-10-13T17:37:15;22.80;;;12.95;;
82777;SDS011;72510;45.128;20.734;2023-10-13T17:47:16;18.42;;;11.90;;
82777;SDS011;72510;45.128;20.734;2023-10-13T17:57:16;39.60;;;18.13;;
82777;SDS011;72510;45.128;20.734;2023-10-13T18:07:17;26.97;;;19.50;;
82777;SDS011;72510;45.128;20.734;2023-10-13T18:17:18;25.23;;;18.07;;
82777;SDS011;72510;45.128;20.734;2023-10-13T18:27:18;26.35;;;19.48;;
82777;SDS011;72510;45.128;20.734;2023-10-13T18:37:19;28.67;;;21.90;;
82777;SDS011;72510;45.128;20.734;2023-10-13T18:47:19;31.00;;;19.83;;
82777;SDS011;72510;45.128;20.734;2023-10-13T18:57:35;26.73;;;20.65;;
82777;SDS011;72510;45.128;20.734;2023-10-13T19:07:44;27.77;;;22.63;;
82777;SDS011;72510;45.128;20.734;2023-10-13T19:17:44;28.85;;;21.55;;
82777;SDS011;72510;45.128;20.734;2023-10-13T19:27:44;27.77;;;19.85;;
82777;SDS011;72510;45.128;20.734;2023-10-13T19:37:45;27.38;;;19.60;;
82777;SDS011;72510;45.128;20.734;2023-10-13T19:47:46;23.13;;;18.70;;
82777;SDS011;72510;45.128;20.734;2023-10-13T19:57:46;28.33;;;19.20;;
82777;SDS011;72510;45.128;20.734;2023-10-13T20:07:47;23.33;;;18.05;;
82777;SDS011;72510;45.128;20.734;2023-10-13T20:17:47;25.40;;;19.27;;
82777;SDS011;72510;45.128;20.734;2023-10-13T20:27:48;23.50;;;20.98;;
82777;SDS011;72510;45.128;20.734;2023-10-13T20:37:48;22.63;;;19.63;;
82777;SDS011;72510;45.128;20.734;2023-10-13T20:47:50;30.03;;;23.40;;
82777;SDS011;72510;45.128;20.734;2023-10-13T20:57:51;25.70;;;20.73;;
82777;SDS011;72510;45.128;20.734;2023-10-13T21:07:55;30.42;;;22.58;;
82777;SDS011;72510;45.128;20.734;2023-10-13T21:17:56;32.35;;;24.05;;
82777;SDS011;72510;45.128;20.734;2023-10-13T21:27:57;30.52;;;23.48;;
82777;SDS011;72510;45.128;20.734;2023-10-13T21:37:58;25.73;;;20.92;;
82777;SDS011;72510;45.128;20.734;2023-10-13T21:47:58;22.17;;;17.85;;
82777;SDS011;72510;45.128;20.734;2023-10-13T21:57:58;17.77;;;14.52;;
82777;SDS011;72510;45.128;20.734;2023-10-13T22:07:59;20.15;;;14.73;;
82777;SDS011;72510;45.128;20.734;2023-10-13T22:17:59;20.30;;;16.73;;
82777;SDS011;72510;45.128;20.734;2023-10-13T22:28:00;24.02;;;17.88;;
82777;SDS011;72510;45.128;20.734;2023-10-13T22:38:00;24.73;;;14.93;;
82777;SDS011;72510;45.128;20.734;2023-10-13T22:48:01;19.85;;;13.50;;
82777;SDS011;72510;45.128;20.734;2023-10-13T22:58:01;18.83;;;15.30;;
82777;SDS011;72510;45.128;20.734;2023-10-13T23:18:03;17.50;;;12.23;;
82777;SDS011;72510;45.128;20.734;2023-10-13T23:38:05;13.75;;;12.18;;
82777;SDS011;72510;45.128;20.734;2023-10-13T23:48:06;17.35;;;13.23;;
82777;SDS011;72510;45.128;20.734;2023-10-13T23:58:06;18.73;;;12.53;;
